UAL402 KSLC-KLAX
Flight info
| Callsign | UAL402 |
|---|---|
| Flight time | 1h 32m |
| Altitude | 38000 |
| Route | ARCHZ1 WINEN LAKRR HAKMN ANJLL4 |
| Aircraft | B38M/M-SDE1FGHILORVWXY/HB1 |
Departure
| Time | 2026-04-24 23:52 |
|---|---|
| Airport | Salt Lake City International Airport (KSLC) |
Arrival
| Time | 2026-04-25 01:24 |
|---|---|
| Airport | Los Angeles International Airport (KLAX) |
| Time | Latitude | Longitude | Altitude | Speed | Heading |
|---|---|---|---|---|---|
| 2026-04-24 23:21 | 40.78662 | -111.98156 | 4236 ft | 0 kts | 174° |
| 2026-04-24 23:35 | 40.78678 | -111.98159 | 4234 ft | 2 kts | 172° |
| 2026-04-24 23:35 | 40.78694 | -111.98162 | 4235 ft | 2 kts | 169° |
| 2026-04-24 23:35 | 40.78710 | -111.98168 | 4234 ft | 2 kts | 159° |
| 2026-04-24 23:35 | 40.78724 | -111.98179 | 4234 ft | 2 kts | 117° |
| 2026-04-24 23:36 | 40.78726 | -111.98193 | 4234 ft | 0 kts | 85° |
| 2026-04-24 23:36 | 40.78726 | -111.98194 | 4234 ft | 0 kts | 85° |
| 2026-04-24 23:40 | 40.78727 | -111.98186 | 4234 ft | 5 kts | 85° |
| 2026-04-24 23:41 | 40.78733 | -111.98089 | 4234 ft | 11 kts | 85° |
| 2026-04-24 23:41 | 40.78740 | -111.97982 | 4236 ft | 12 kts | 85° |
| 2026-04-24 23:41 | 40.78747 | -111.97879 | 4236 ft | 11 kts | 85° |
| 2026-04-24 23:41 | 40.78733 | -111.97781 | 4235 ft | 11 kts | 144° |
| 2026-04-24 23:42 | 40.78671 | -111.97769 | 4235 ft | 10 kts | 175° |
| 2026-04-24 23:42 | 40.78596 | -111.97760 | 4234 ft | 12 kts | 175° |
| 2026-04-24 23:42 | 40.78497 | -111.97749 | 4230 ft | 15 kts | 174° |
| 2026-04-24 23:42 | 40.78448 | -111.97673 | 4228 ft | 10 kts | 115° |
| 2026-04-24 23:43 | 40.78410 | -111.97643 | 4228 ft | 7 kts | 164° |
| 2026-04-24 23:43 | 40.78356 | -111.97635 | 4228 ft | 9 kts | 175° |
| 2026-04-24 23:43 | 40.78291 | -111.97628 | 4228 ft | 10 kts | 175° |
| 2026-04-24 23:43 | 40.78203 | -111.97617 | 4228 ft | 16 kts | 175° |
| 2026-04-24 23:44 | 40.78083 | -111.97603 | 4227 ft | 18 kts | 175° |
| 2026-04-24 23:44 | 40.77978 | -111.97591 | 4263 ft | 13 kts | 175° |
| 2026-04-24 23:44 | 40.77916 | -111.97584 | 4264 ft | 4 kts | 174° |
| 2026-04-24 23:44 | 40.77892 | -111.97564 | 4264 ft | 5 kts | 134° |
| 2026-04-24 23:45 | 40.77858 | -111.97532 | 4264 ft | 8 kts | 160° |
| 2026-04-24 23:45 | 40.77794 | -111.97521 | 4265 ft | 11 kts | 174° |
| 2026-04-24 23:45 | 40.77716 | -111.97511 | 4267 ft | 11 kts | 175° |
| 2026-04-24 23:45 | 40.77630 | -111.97501 | 4268 ft | 14 kts | 175° |
| 2026-04-24 23:46 | 40.77540 | -111.97490 | 4266 ft | 15 kts | 175° |
| 2026-04-24 23:46 | 40.77469 | -111.97475 | 4265 ft | 0 kts | 150° |
| 2026-04-24 23:46 | 40.77468 | -111.97474 | 4265 ft | 0 kts | 147° |
| 2026-04-24 23:50 | 40.77465 | -111.97472 | 4265 ft | 2 kts | 146° |
| 2026-04-24 23:50 | 40.77455 | -111.97401 | 4264 ft | 14 kts | 64° |
| 2026-04-24 23:51 | 40.77511 | -111.97333 | 4263 ft | 10 kts | 23° |
| 2026-04-24 23:51 | 40.77698 | -111.97341 | 4265 ft | 63 kts | 354° |
| 2026-04-24 23:51 | 40.78412 | -111.97425 | 4232 ft | 139 kts | 355° |
| 2026-04-24 23:51 | 40.79525 | -111.97552 | 4624 ft | 176 kts | 353° |
| 2026-04-24 23:52 | 40.80820 | -111.97700 | 5451 ft | 197 kts | 352° |
| 2026-04-24 23:52 | 40.82263 | -111.98000 | 6233 ft | 219 kts | 337° |
| 2026-04-24 23:52 | 40.83426 | -111.99352 | 6884 ft | 238 kts | 298° |
| 2026-04-24 23:52 | 40.83674 | -112.01555 | 7449 ft | 256 kts | 258° |
| 2026-04-24 23:53 | 40.82757 | -112.03574 | 8216 ft | 267 kts | 221° |
| 2026-04-24 23:53 | 40.81054 | -112.04569 | 9243 ft | 272 kts | 201° |
| 2026-04-24 23:53 | 40.79375 | -112.05599 | 10040 ft | 269 kts | 226° |
| 2026-04-24 23:53 | 40.78361 | -112.07650 | 10740 ft | 277 kts | 252° |
| 2026-04-24 23:54 | 40.78052 | -112.10223 | 11248 ft | 292 kts | 262° |
| 2026-04-24 23:54 | 40.77729 | -112.12921 | 11856 ft | 303 kts | 259° |
| 2026-04-24 23:54 | 40.77329 | -112.15673 | 12681 ft | 306 kts | 258° |
| 2026-04-24 23:54 | 40.76893 | -112.18419 | 13651 ft | 306 kts | 257° |
| 2026-04-24 23:55 | 40.76436 | -112.21170 | 14487 ft | 309 kts | 257° |
| 2026-04-24 23:55 | 40.75842 | -112.23904 | 15297 ft | 313 kts | 246° |
| 2026-04-24 23:55 | 40.74535 | -112.26214 | 16161 ft | 321 kts | 225° |
| 2026-04-24 23:55 | 40.72587 | -112.27746 | 16958 ft | 336 kts | 205° |
| 2026-04-24 23:56 | 40.70250 | -112.28368 | 17754 ft | 347 kts | 195° |
| 2026-04-24 23:56 | 40.67849 | -112.28853 | 18416 ft | 352 kts | 196° |
| 2026-04-24 23:56 | 40.65416 | -112.29353 | 19074 ft | 355 kts | 195° |
| 2026-04-24 23:56 | 40.62962 | -112.29854 | 19718 ft | 359 kts | 195° |
| 2026-04-24 23:57 | 40.60479 | -112.30359 | 20345 ft | 363 kts | 195° |
| 2026-04-24 23:57 | 40.57968 | -112.30869 | 20964 ft | 367 kts | 195° |
| 2026-04-24 23:57 | 40.55482 | -112.31570 | 21568 ft | 364 kts | 204° |
| 2026-04-24 23:57 | 40.53053 | -112.32577 | 22153 ft | 369 kts | 204° |
| 2026-04-24 23:58 | 40.50588 | -112.33581 | 22696 ft | 374 kts | 204° |
| 2026-04-24 23:58 | 40.48091 | -112.34601 | 22819 ft | 375 kts | 204° |
| 2026-04-24 23:58 | 40.45605 | -112.35616 | 22836 ft | 374 kts | 204° |
| 2026-04-24 23:58 | 40.43120 | -112.36632 | 22817 ft | 374 kts | 204° |
| 2026-04-24 23:59 | 40.40640 | -112.37644 | 22819 ft | 374 kts | 204° |
| 2026-04-24 23:59 | 40.38157 | -112.38657 | 22781 ft | 374 kts | 203° |
| 2026-04-24 23:59 | 40.35709 | -112.39655 | 22791 ft | 373 kts | 203° |
| 2026-04-24 23:59 | 40.33201 | -112.40677 | 22787 ft | 373 kts | 203° |
| 2026-04-25 00:00 | 40.30722 | -112.41685 | 22772 ft | 373 kts | 203° |
| 2026-04-25 00:00 | 40.28278 | -112.42679 | 22752 ft | 373 kts | 203° |
| 2026-04-25 00:00 | 40.25801 | -112.43686 | 22751 ft | 373 kts | 203° |
| 2026-04-25 00:00 | 40.23329 | -112.44690 | 22754 ft | 372 kts | 204° |
| 2026-04-25 00:01 | 40.20853 | -112.45695 | 22750 ft | 373 kts | 203° |
| 2026-04-25 00:01 | 40.18387 | -112.46740 | 22744 ft | 372 kts | 208° |
| 2026-04-25 00:01 | 40.16113 | -112.48290 | 23230 ft | 370 kts | 214° |
| 2026-04-25 00:01 | 40.13827 | -112.49890 | 23708 ft | 375 kts | 213° |
| 2026-04-25 00:02 | 40.11523 | -112.51505 | 24268 ft | 376 kts | 213° |
| 2026-04-25 00:02 | 40.09212 | -112.53130 | 24810 ft | 378 kts | 214° |
| 2026-04-25 00:02 | 40.06887 | -112.54765 | 25336 ft | 380 kts | 214° |
| 2026-04-25 00:02 | 40.04549 | -112.56408 | 25884 ft | 383 kts | 214° |
| 2026-04-25 00:03 | 40.02196 | -112.58058 | 26393 ft | 385 kts | 214° |
| 2026-04-25 00:03 | 39.99833 | -112.59717 | 26922 ft | 387 kts | 214° |
| 2026-04-25 00:03 | 39.97457 | -112.61383 | 27435 ft | 389 kts | 214° |
| 2026-04-25 00:03 | 39.95065 | -112.63059 | 27923 ft | 391 kts | 214° |
| 2026-04-25 00:04 | 39.92661 | -112.64743 | 28411 ft | 393 kts | 214° |
| 2026-04-25 00:04 | 39.90236 | -112.66437 | 28785 ft | 397 kts | 214° |
| 2026-04-25 00:04 | 39.87799 | -112.68141 | 29265 ft | 399 kts | 214° |
| 2026-04-25 00:04 | 39.85343 | -112.69856 | 29726 ft | 402 kts | 214° |
| 2026-04-25 00:05 | 39.82874 | -112.71578 | 30108 ft | 404 kts | 214° |
| 2026-04-25 00:05 | 39.80389 | -112.73311 | 30464 ft | 406 kts | 214° |
| 2026-04-25 00:05 | 39.77888 | -112.75052 | 30836 ft | 409 kts | 214° |
| 2026-04-25 00:05 | 39.75372 | -112.76803 | 31206 ft | 411 kts | 214° |
| 2026-04-25 00:06 | 39.72846 | -112.78559 | 31551 ft | 413 kts | 213° |
| 2026-04-25 00:06 | 39.70304 | -112.80326 | 31865 ft | 416 kts | 213° |
| 2026-04-25 00:06 | 39.67732 | -112.81998 | 32115 ft | 424 kts | 206° |
| 2026-04-25 00:06 | 39.64862 | -112.83160 | 32521 ft | 428 kts | 202° |
| 2026-04-25 00:07 | 39.62038 | -112.84296 | 32777 ft | 432 kts | 203° |
| 2026-04-25 00:07 | 39.59160 | -112.85450 | 33163 ft | 433 kts | 203° |
| 2026-04-25 00:07 | 39.56248 | -112.86612 | 33644 ft | 432 kts | 203° |
| 2026-04-25 00:07 | 39.53414 | -112.87742 | 34051 ft | 431 kts | 203° |
| 2026-04-25 00:08 | 39.50548 | -112.88883 | 34429 ft | 431 kts | 203° |
| 2026-04-25 00:08 | 39.47685 | -112.90022 | 34808 ft | 431 kts | 203° |
| 2026-04-25 00:08 | 39.44822 | -112.91159 | 35146 ft | 430 kts | 203° |
| 2026-04-25 00:08 | 39.41960 | -112.92295 | 35522 ft | 430 kts | 203° |
| 2026-04-25 00:09 | 39.39102 | -112.93429 | 35877 ft | 429 kts | 204° |
| 2026-04-25 00:09 | 39.36249 | -112.94560 | 36215 ft | 429 kts | 204° |
| 2026-04-25 00:09 | 39.33398 | -112.95689 | 36551 ft | 429 kts | 204° |
| 2026-04-25 00:09 | 39.30547 | -112.96817 | 36860 ft | 429 kts | 204° |
| 2026-04-25 00:10 | 39.27693 | -112.97945 | 37188 ft | 429 kts | 204° |
| 2026-04-25 00:10 | 39.24840 | -112.99072 | 37508 ft | 429 kts | 204° |
| 2026-04-25 00:10 | 39.21986 | -113.00198 | 37691 ft | 430 kts | 204° |
| 2026-04-25 00:10 | 39.19127 | -113.01325 | 37689 ft | 429 kts | 204° |
| 2026-04-25 00:11 | 39.14366 | -113.03200 | 37698 ft | 427 kts | 204° |
| 2026-04-25 00:11 | 39.07756 | -113.05799 | 37703 ft | 427 kts | 204° |
| 2026-04-25 00:12 | 39.02073 | -113.08029 | 37703 ft | 427 kts | 204° |
| 2026-04-25 00:12 | 38.96386 | -113.10257 | 37692 ft | 427 kts | 204° |
| 2026-04-25 00:13 | 38.90710 | -113.12477 | 37724 ft | 426 kts | 204° |
| 2026-04-25 00:13 | 38.85034 | -113.14694 | 37721 ft | 426 kts | 204° |
| 2026-04-25 00:14 | 38.79360 | -113.16906 | 37731 ft | 426 kts | 204° |
| 2026-04-25 00:14 | 38.73689 | -113.19113 | 37714 ft | 426 kts | 204° |
| 2026-04-25 00:15 | 38.68006 | -113.21321 | 37734 ft | 427 kts | 204° |
| 2026-04-25 00:15 | 38.62321 | -113.23526 | 37776 ft | 427 kts | 204° |
| 2026-04-25 00:16 | 38.56680 | -113.25711 | 37788 ft | 427 kts | 204° |
| 2026-04-25 00:16 | 38.51005 | -113.27906 | 37753 ft | 426 kts | 204° |
| 2026-04-25 00:17 | 38.45328 | -113.30097 | 37801 ft | 426 kts | 204° |
| 2026-04-25 00:17 | 38.39659 | -113.32281 | 37793 ft | 425 kts | 204° |
| 2026-04-25 00:18 | 38.33989 | -113.34462 | 37779 ft | 426 kts | 204° |
| 2026-04-25 00:18 | 38.28316 | -113.36641 | 37772 ft | 425 kts | 204° |
| 2026-04-25 00:19 | 38.22644 | -113.38817 | 37762 ft | 426 kts | 204° |
| 2026-04-25 00:19 | 38.16975 | -113.40987 | 37777 ft | 426 kts | 204° |
| 2026-04-25 00:20 | 38.11303 | -113.43155 | 37776 ft | 426 kts | 204° |
| 2026-04-25 00:20 | 38.05629 | -113.45321 | 37785 ft | 426 kts | 204° |
| 2026-04-25 00:21 | 37.99950 | -113.47485 | 37797 ft | 426 kts | 204° |
| 2026-04-25 00:21 | 37.94276 | -113.49647 | 37781 ft | 424 kts | 205° |
| 2026-04-25 00:22 | 37.88715 | -113.52093 | 37787 ft | 423 kts | 206° |
| 2026-04-25 00:22 | 37.84087 | -113.54112 | 37793 ft | 423 kts | 206° |
| 2026-04-25 00:23 | 37.78520 | -113.56532 | 37779 ft | 422 kts | 206° |
| 2026-04-25 00:23 | 37.72960 | -113.58943 | 37794 ft | 422 kts | 206° |
| 2026-04-25 00:24 | 37.67404 | -113.61349 | 37797 ft | 422 kts | 206° |
| 2026-04-25 00:24 | 37.61845 | -113.63753 | 37803 ft | 422 kts | 206° |
| 2026-04-25 00:25 | 37.56286 | -113.66153 | 37768 ft | 422 kts | 206° |
| 2026-04-25 00:25 | 37.50740 | -113.68543 | 37788 ft | 421 kts | 206° |
| 2026-04-25 00:26 | 37.45194 | -113.70930 | 37802 ft | 421 kts | 206° |
| 2026-04-25 00:26 | 37.39686 | -113.73296 | 37795 ft | 421 kts | 206° |
| 2026-04-25 00:27 | 37.34136 | -113.75677 | 37776 ft | 421 kts | 206° |
| 2026-04-25 00:27 | 37.28590 | -113.78053 | 37781 ft | 421 kts | 206° |
| 2026-04-25 00:28 | 37.23053 | -113.80418 | 37785 ft | 420 kts | 206° |
| 2026-04-25 00:28 | 37.17530 | -113.82799 | 37738 ft | 420 kts | 206° |
| 2026-04-25 00:29 | 37.11996 | -113.85141 | 37797 ft | 420 kts | 206° |
| 2026-04-25 00:29 | 37.06470 | -113.87491 | 37762 ft | 418 kts | 207° |
| 2026-04-25 00:30 | 37.00971 | -113.89829 | 37770 ft | 417 kts | 207° |
| 2026-04-25 00:30 | 36.95476 | -113.92160 | 37760 ft | 417 kts | 207° |
| 2026-04-25 00:31 | 36.89977 | -113.94491 | 37761 ft | 417 kts | 207° |
| 2026-04-25 00:31 | 36.84481 | -113.96816 | 37750 ft | 417 kts | 207° |
| 2026-04-25 00:32 | 36.79007 | -113.99128 | 37757 ft | 414 kts | 207° |
| 2026-04-25 00:32 | 36.73564 | -114.01424 | 37737 ft | 413 kts | 207° |
| 2026-04-25 00:33 | 36.68118 | -114.03718 | 37741 ft | 413 kts | 207° |
| 2026-04-25 00:33 | 36.62673 | -114.06008 | 37754 ft | 412 kts | 206° |
| 2026-04-25 00:34 | 36.57204 | -114.08247 | 37694 ft | 410 kts | 207° |
| 2026-04-25 00:34 | 36.51822 | -114.10550 | 37677 ft | 413 kts | 207° |
| 2026-04-25 00:35 | 36.46364 | -114.12845 | 37730 ft | 415 kts | 207° |
| 2026-04-25 00:35 | 36.40896 | -114.15132 | 37706 ft | 414 kts | 207° |
| 2026-04-25 00:36 | 36.35429 | -114.17413 | 37698 ft | 416 kts | 207° |
| 2026-04-25 00:36 | 36.29952 | -114.19697 | 37684 ft | 414 kts | 207° |
| 2026-04-25 00:37 | 36.24495 | -114.21969 | 37697 ft | 414 kts | 207° |
| 2026-04-25 00:37 | 36.19038 | -114.24237 | 37705 ft | 413 kts | 207° |
| 2026-04-25 00:38 | 36.13582 | -114.26502 | 37700 ft | 414 kts | 207° |
| 2026-04-25 00:38 | 36.08492 | -114.29428 | 37644 ft | 390 kts | 228° |
| 2026-04-25 00:39 | 36.04698 | -114.34152 | 37675 ft | 387 kts | 232° |
| 2026-04-25 00:39 | 36.01058 | -114.39037 | 37699 ft | 386 kts | 233° |
| 2026-04-25 00:40 | 35.97484 | -114.43946 | 37686 ft | 382 kts | 234° |
| 2026-04-25 00:40 | 35.93944 | -114.48837 | 37705 ft | 382 kts | 234° |
| 2026-04-25 00:41 | 35.90402 | -114.53729 | 37709 ft | 382 kts | 234° |
| 2026-04-25 00:41 | 35.86862 | -114.58612 | 37722 ft | 382 kts | 234° |
| 2026-04-25 00:42 | 35.83321 | -114.63489 | 37696 ft | 382 kts | 234° |
| 2026-04-25 00:42 | 35.79776 | -114.68366 | 37773 ft | 382 kts | 233° |
| 2026-04-25 00:43 | 35.76240 | -114.73222 | 37728 ft | 382 kts | 233° |
| 2026-04-25 00:43 | 35.72687 | -114.78093 | 37783 ft | 382 kts | 234° |
| 2026-04-25 00:44 | 35.69133 | -114.82960 | 37786 ft | 382 kts | 233° |
| 2026-04-25 00:44 | 35.65605 | -114.87785 | 37798 ft | 383 kts | 233° |
| 2026-04-25 00:45 | 35.62046 | -114.92645 | 37788 ft | 382 kts | 233° |
| 2026-04-25 00:45 | 35.58487 | -114.97497 | 37786 ft | 382 kts | 233° |
| 2026-04-25 00:46 | 35.54929 | -115.02343 | 37786 ft | 381 kts | 234° |
| 2026-04-25 00:47 | 35.49539 | -115.09573 | 37807 ft | 384 kts | 233° |
| 2026-04-25 00:47 | 35.45887 | -115.14344 | 37831 ft | 383 kts | 233° |
| 2026-04-25 00:48 | 35.42226 | -115.19130 | 37816 ft | 386 kts | 233° |
| 2026-04-25 00:48 | 35.38549 | -115.23930 | 37820 ft | 386 kts | 233° |
| 2026-04-25 00:49 | 35.34873 | -115.28724 | 37831 ft | 386 kts | 233° |
| 2026-04-25 00:49 | 35.31194 | -115.33513 | 37808 ft | 386 kts | 233° |
| 2026-04-25 00:50 | 35.27509 | -115.38304 | 37824 ft | 387 kts | 233° |
| 2026-04-25 00:50 | 35.23820 | -115.43092 | 37831 ft | 386 kts | 233° |
| 2026-04-25 00:51 | 35.20133 | -115.47871 | 37836 ft | 386 kts | 233° |
| 2026-04-25 00:51 | 35.16440 | -115.52652 | 37831 ft | 387 kts | 233° |
| 2026-04-25 00:52 | 35.12745 | -115.57426 | 37791 ft | 387 kts | 233° |
| 2026-04-25 00:52 | 35.09035 | -115.62174 | 37827 ft | 386 kts | 233° |
| 2026-04-25 00:53 | 35.05323 | -115.66921 | 37806 ft | 388 kts | 233° |
| 2026-04-25 00:53 | 35.01590 | -115.71691 | 37817 ft | 389 kts | 233° |
| 2026-04-25 00:54 | 34.97855 | -115.76453 | 37816 ft | 388 kts | 233° |
| 2026-04-25 00:54 | 34.94119 | -115.81213 | 37804 ft | 388 kts | 233° |
| 2026-04-25 00:55 | 34.90384 | -115.85964 | 37793 ft | 388 kts | 233° |
| 2026-04-25 00:55 | 34.86646 | -115.90711 | 37779 ft | 388 kts | 233° |
| 2026-04-25 00:56 | 34.82908 | -115.95454 | 37788 ft | 388 kts | 233° |
| 2026-04-25 00:56 | 34.79187 | -116.00166 | 37758 ft | 382 kts | 233° |
| 2026-04-25 00:57 | 34.75549 | -116.04800 | 37767 ft | 381 kts | 233° |
| 2026-04-25 00:57 | 34.71888 | -116.09464 | 37773 ft | 381 kts | 233° |
| 2026-04-25 00:58 | 34.68227 | -116.14123 | 37766 ft | 381 kts | 233° |
| 2026-04-25 00:58 | 34.64561 | -116.18781 | 37758 ft | 381 kts | 233° |
| 2026-04-25 00:59 | 34.60894 | -116.23433 | 37776 ft | 382 kts | 233° |
| 2026-04-25 00:59 | 34.57228 | -116.28078 | 37773 ft | 379 kts | 233° |
| 2026-04-25 01:00 | 34.53595 | -116.32677 | 37775 ft | 376 kts | 233° |
| 2026-04-25 01:00 | 34.49970 | -116.37257 | 37692 ft | 375 kts | 233° |
| 2026-04-25 01:00 | 34.48165 | -116.39536 | 36910 ft | 375 kts | 233° |
| 2026-04-25 01:01 | 34.46355 | -116.41818 | 36167 ft | 375 kts | 233° |
| 2026-04-25 01:01 | 34.44552 | -116.44092 | 35556 ft | 372 kts | 232° |
| 2026-04-25 01:01 | 34.42769 | -116.46347 | 35004 ft | 369 kts | 233° |
| 2026-04-25 01:01 | 34.41329 | -116.48855 | 34301 ft | 360 kts | 246° |
| 2026-04-25 01:02 | 34.40188 | -116.51573 | 33586 ft | 366 kts | 245° |
| 2026-04-25 01:02 | 34.39009 | -116.54328 | 32851 ft | 370 kts | 246° |
| 2026-04-25 01:02 | 34.37838 | -116.57108 | 32187 ft | 372 kts | 246° |
| 2026-04-25 01:02 | 34.36669 | -116.59916 | 31564 ft | 374 kts | 246° |
| 2026-04-25 01:03 | 34.35505 | -116.62724 | 30946 ft | 372 kts | 246° |
| 2026-04-25 01:03 | 34.34365 | -116.65483 | 30292 ft | 371 kts | 246° |
| 2026-04-25 01:03 | 34.33224 | -116.68280 | 29543 ft | 371 kts | 247° |
| 2026-04-25 01:03 | 34.32103 | -116.71079 | 28958 ft | 367 kts | 247° |
| 2026-04-25 01:04 | 34.30995 | -116.73834 | 28514 ft | 363 kts | 247° |
| 2026-04-25 01:04 | 34.29890 | -116.76580 | 28051 ft | 363 kts | 247° |
| 2026-04-25 01:04 | 34.28789 | -116.79311 | 27485 ft | 359 kts | 247° |
| 2026-04-25 01:04 | 34.27701 | -116.82010 | 26970 ft | 356 kts | 247° |
| 2026-04-25 01:05 | 34.26622 | -116.84682 | 26444 ft | 353 kts | 247° |
| 2026-04-25 01:05 | 34.25549 | -116.87337 | 25943 ft | 350 kts | 247° |
| 2026-04-25 01:05 | 34.24484 | -116.89971 | 25437 ft | 348 kts | 247° |
| 2026-04-25 01:05 | 34.23424 | -116.92590 | 24915 ft | 346 kts | 247° |
| 2026-04-25 01:06 | 34.22368 | -116.95197 | 24405 ft | 344 kts | 247° |
| 2026-04-25 01:06 | 34.21324 | -116.97790 | 23901 ft | 342 kts | 249° |
| 2026-04-25 01:06 | 34.20566 | -117.00503 | 23332 ft | 342 kts | 255° |
| 2026-04-25 01:06 | 34.19841 | -117.03246 | 22744 ft | 343 kts | 253° |
| 2026-04-25 01:07 | 34.19097 | -117.05972 | 22236 ft | 342 kts | 254° |
| 2026-04-25 01:07 | 34.18347 | -117.08694 | 21703 ft | 341 kts | 253° |
| 2026-04-25 01:07 | 34.17592 | -117.11404 | 21207 ft | 339 kts | 253° |
| 2026-04-25 01:07 | 34.16839 | -117.14110 | 20498 ft | 342 kts | 253° |
| 2026-04-25 01:08 | 34.16093 | -117.16823 | 19774 ft | 337 kts | 253° |
| 2026-04-25 01:08 | 34.15364 | -117.19475 | 19265 ft | 327 kts | 253° |
| 2026-04-25 01:08 | 34.14662 | -117.22033 | 18816 ft | 315 kts | 253° |
| 2026-04-25 01:08 | 34.13986 | -117.24491 | 18423 ft | 303 kts | 253° |
| 2026-04-25 01:09 | 34.13335 | -117.26856 | 18020 ft | 291 kts | 253° |
| 2026-04-25 01:09 | 34.12710 | -117.29125 | 17648 ft | 279 kts | 253° |
| 2026-04-25 01:09 | 34.12102 | -117.31329 | 17313 ft | 278 kts | 253° |
| 2026-04-25 01:09 | 34.11481 | -117.33580 | 16951 ft | 285 kts | 253° |
| 2026-04-25 01:10 | 34.10848 | -117.35873 | 16597 ft | 290 kts | 252° |
| 2026-04-25 01:10 | 34.10248 | -117.38201 | 16207 ft | 291 kts | 254° |
| 2026-04-25 01:10 | 34.09666 | -117.40530 | 15867 ft | 288 kts | 254° |
| 2026-04-25 01:10 | 34.09087 | -117.42834 | 15457 ft | 287 kts | 254° |
| 2026-04-25 01:11 | 34.08700 | -117.44372 | 15133 ft | 291 kts | 253° |
| 2026-04-25 01:11 | 34.07899 | -117.47543 | 14435 ft | 299 kts | 253° |
| 2026-04-25 01:11 | 34.07497 | -117.49136 | 14106 ft | 301 kts | 253° |
| 2026-04-25 01:11 | 34.07030 | -117.51601 | 13645 ft | 302 kts | 258° |
| 2026-04-25 01:12 | 34.06602 | -117.54073 | 13231 ft | 300 kts | 258° |
| 2026-04-25 01:12 | 34.06028 | -117.57313 | 12757 ft | 297 kts | 258° |
| 2026-04-25 01:12 | 34.05734 | -117.58955 | 12511 ft | 296 kts | 258° |
| 2026-04-25 01:12 | 34.05296 | -117.61382 | 12147 ft | 296 kts | 258° |
| 2026-04-25 01:13 | 34.04861 | -117.63783 | 11771 ft | 288 kts | 257° |
| 2026-04-25 01:13 | 34.04442 | -117.66093 | 11424 ft | 276 kts | 257° |
| 2026-04-25 01:13 | 34.04045 | -117.68272 | 11093 ft | 265 kts | 257° |
| 2026-04-25 01:13 | 34.03654 | -117.70426 | 10768 ft | 263 kts | 257° |
| 2026-04-25 01:14 | 34.03259 | -117.72593 | 10463 ft | 266 kts | 257° |
| 2026-04-25 01:14 | 34.02860 | -117.74774 | 10124 ft | 267 kts | 258° |
| 2026-04-25 01:14 | 34.02461 | -117.76957 | 9776 ft | 267 kts | 257° |
| 2026-04-25 01:14 | 34.02063 | -117.79136 | 9413 ft | 266 kts | 257° |
| 2026-04-25 01:15 | 34.01665 | -117.81310 | 9069 ft | 265 kts | 257° |
| 2026-04-25 01:15 | 34.01268 | -117.83477 | 8730 ft | 264 kts | 257° |
| 2026-04-25 01:15 | 34.00872 | -117.85635 | 8392 ft | 263 kts | 257° |
| 2026-04-25 01:15 | 34.00477 | -117.87781 | 8069 ft | 262 kts | 257° |
| 2026-04-25 01:16 | 34.00084 | -117.89919 | 7737 ft | 261 kts | 257° |
| 2026-04-25 01:16 | 33.99692 | -117.92047 | 7411 ft | 260 kts | 257° |
| 2026-04-25 01:16 | 33.99301 | -117.94171 | 7090 ft | 259 kts | 257° |
| 2026-04-25 01:16 | 33.98910 | -117.96293 | 6752 ft | 259 kts | 257° |
| 2026-04-25 01:17 | 33.98518 | -117.98414 | 6429 ft | 259 kts | 257° |
| 2026-04-25 01:17 | 33.98129 | -118.00523 | 6091 ft | 256 kts | 257° |
| 2026-04-25 01:17 | 33.97750 | -118.02575 | 5767 ft | 247 kts | 257° |
| 2026-04-25 01:17 | 33.97381 | -118.04561 | 5433 ft | 239 kts | 257° |
| 2026-04-25 01:18 | 33.97027 | -118.06476 | 5187 ft | 227 kts | 257° |
| 2026-04-25 01:18 | 33.96766 | -118.08274 | 4923 ft | 211 kts | 262° |
| 2026-04-25 01:18 | 33.96603 | -118.09986 | 4607 ft | 201 kts | 262° |
| 2026-04-25 01:18 | 33.96443 | -118.11617 | 4337 ft | 191 kts | 262° |
| 2026-04-25 01:19 | 33.96289 | -118.13170 | 4088 ft | 182 kts | 262° |
| 2026-04-25 01:19 | 33.96145 | -118.14601 | 3924 ft | 167 kts | 261° |
| 2026-04-25 01:19 | 33.96004 | -118.15985 | 3789 ft | 167 kts | 261° |
| 2026-04-25 01:19 | 33.95864 | -118.17366 | 3546 ft | 165 kts | 260° |
| 2026-04-25 01:20 | 33.95724 | -118.18736 | 3288 ft | 165 kts | 260° |
| 2026-04-25 01:20 | 33.95591 | -118.20050 | 3068 ft | 151 kts | 259° |
| 2026-04-25 01:20 | 33.95466 | -118.21279 | 2868 ft | 145 kts | 260° |
| 2026-04-25 01:20 | 33.95345 | -118.22474 | 2689 ft | 142 kts | 258° |
| 2026-04-25 01:21 | 33.95223 | -118.23648 | 2502 ft | 141 kts | 260° |
| 2026-04-25 01:21 | 33.95107 | -118.24811 | 2308 ft | 139 kts | 260° |
| 2026-04-25 01:21 | 33.94991 | -118.25959 | 2162 ft | 136 kts | 258° |
| 2026-04-25 01:21 | 33.94875 | -118.27080 | 1954 ft | 136 kts | 259° |
| 2026-04-25 01:22 | 33.94764 | -118.28209 | 1758 ft | 134 kts | 257° |
| 2026-04-25 01:22 | 33.94644 | -118.29327 | 1606 ft | 135 kts | 259° |
| 2026-04-25 01:22 | 33.94531 | -118.30452 | 1400 ft | 136 kts | 260° |
| 2026-04-25 01:22 | 33.94417 | -118.31590 | 1239 ft | 137 kts | 262° |
| 2026-04-25 01:23 | 33.94303 | -118.32722 | 1136 ft | 136 kts | 262° |
| 2026-04-25 01:23 | 33.94210 | -118.33863 | 973 ft | 137 kts | 262° |
| 2026-04-25 01:23 | 33.94095 | -118.34996 | 741 ft | 134 kts | 261° |
| 2026-04-25 01:23 | 33.93971 | -118.36098 | 523 ft | 133 kts | 261° |
| 2026-04-25 01:24 | 33.93859 | -118.37219 | 373 ft | 134 kts | 263° |
| 2026-04-25 01:24 | 33.93736 | -118.38309 | 172 ft | 129 kts | 262° |
| 2026-04-25 01:24 | 33.93636 | -118.39242 | 125 ft | 82 kts | 263° |
| 2026-04-25 01:24 | 33.93601 | -118.39652 | 128 ft | 27 kts | 272° |
| 2026-04-25 01:25 | 33.93628 | -118.39863 | 127 ft | 20 kts | 287° |
| 2026-04-25 01:25 | 33.93651 | -118.39937 | 126 ft | 0 kts | 290° |
| 2026-04-25 01:25 | 33.93655 | -118.39948 | 125 ft | 2 kts | 290° |
| 2026-04-25 01:26 | 33.93655 | -118.39951 | 125 ft | 0 kts | 290° |
| 2026-04-25 01:27 | 33.93659 | -118.39968 | 125 ft | 7 kts | 282° |
| 2026-04-25 01:27 | 33.93664 | -118.40063 | 128 ft | 13 kts | 268° |
| 2026-04-25 01:27 | 33.93653 | -118.40183 | 128 ft | 15 kts | 263° |
| 2026-04-25 01:28 | 33.93688 | -118.40404 | 128 ft | 11 kts | 322° |
| 2026-04-25 01:28 | 33.93740 | -118.40456 | 124 ft | 11 kts | 306° |
| 2026-04-25 01:28 | 33.93775 | -118.40555 | 126 ft | 14 kts | 297° |
| 2026-04-25 01:28 | 33.93811 | -118.40643 | 126 ft | 9 kts | 276° |
| 2026-04-25 01:29 | 33.93832 | -118.40722 | 123 ft | 11 kts | 322° |
| 2026-04-25 01:29 | 33.93893 | -118.40787 | 126 ft | 13 kts | 317° |
| 2026-04-25 01:29 | 33.93940 | -118.40851 | 127 ft | 10 kts | 294° |
| 2026-04-25 01:29 | 33.93959 | -118.40911 | 127 ft | 8 kts | 290° |
| 2026-04-25 01:30 | 33.93962 | -118.40923 | 124 ft | 0 kts | 291° |